CLASSIFICA

TROFEO DELLE 7 CONTRADE

Corsa su strada 13000 m

Orte (VT) 03/09/2017

DIVISIONI:
COMPETITIVA     CLASSIFICA:   ASSOLUTA    F     M    
CATEGORIE:   TUTTE    |   SF   |   SF30   |   SF35   |   SF40   |   SF45   |   SF50   |   SF55   |   SF60   |   SF65   |   SM   |   SM30   |   SM35   |   SM40   |   SM45   |   SM50   |   SM55   |   SM60   |   SM65   |   SM70   |   SM75  
FILTRO:
  Atleta      Team        Pulisci       Atleti classificati COMPETITIVA: 273  

Cliccare sulle colonne per cambiare ordinamento Pagina:   | 1 | | 2 | | 3 | | 4 | | 5 | | 6 |
Azioni Pos. M/F Cat. P.Cat. Pett Naz Atleta Squadra Tempo Distacco in tempo Distacco in metri Min/Km
11SM50013CIOCCOLINI GIUSEPPEA.S.D. AT RUNNING00:45:02 00:00:00 0 03:28
22SM450196BOUDOUMA YAHYASABINA MARATHON CLUB00:45:12 00:00:10 47 03:29
33SM450119SERANTONI EGIDIOAMATORI PODISTICA TERNI00:45:45 00:00:43 203 03:31
44SM50195ARSENTI GUIDOALTO LAZIO A.S.D.00:46:18 00:01:16 355 03:34
55SM301265MERLUZZO MATTEOO.R.S.T. 2.000:46:37 00:01:35 441 03:35
66SM451224FOIS CHRISTIANASD ATLETICA COSTA D'ARGENTO00:47:18 00:02:16 622 03:38
77SM351202CASALINI VITTORIOTIRRENO ATLETICA CIVITAVECCHIA00:47:43 00:02:41 731 03:40
88SM302102MARTELLETTI STEFANOALTO LAZIO A.S.D.00:47:44 00:02:42 735 03:40
99SM303190GIACOMELLI MATTEORUNNERS SANGEMINI TR00:47:47 00:02:45 748 03:41
1010SM40193MORBIDELLI EMILIANOACADEMY FITNESS CIVITAVECCHIA00:48:45 00:03:43 991 03:45
1111SM30440MARCONI SIMONEA.S.D. BOLSENA FORUM-SPORT00:49:03 00:04:01 1.064 03:46
1212SM352132STABILE ANDREAASD VITAMINA RUNNING TEAM00:49:55 00:04:53 1.271 03:50
1313SM353244CESARINI GIORGIOPOL. MONTALTO00:50:00 00:04:58 1.291 03:51
141SF3509TAMBURI SILVIAATLETICA AVIS PERUGIA00:50:05 00:05:03 1.310 03:51
1514SM402148MIORELLI ALESSANDROATLETICA ROTALIANA00:50:22 00:05:20 1.376 03:53
1615SM354141URBANI LUCAASS.ATL.LIBERTAS ORVIETO00:50:32 00:05:30 1.414 03:53
1716SM355103OTTAVIANELLI ODDOALTO LAZIO A.S.D.00:50:56 00:05:54 1.505 03:55
1817SM502191MARINI OLIVIERORUNNERS SANGEMINI TR00:50:57 00:05:55 1.509 03:55
1918SM403226MATALONI FLAVIOASD ATLETICA COSTA D'ARGENTO00:51:05 00:06:03 1.539 03:56
2019SM305215FERRAMONDO MAUROA.S.D. VITERBO RUNNERS00:51:08 00:06:06 1.550 03:56
2120SM40469COGNATA GIUSEPPEA.S.D. LIBERTY ATLETIC00:51:14 00:06:12 1.573 03:57
2221SM1208MONSORNO LORISU.S.D.CERMIS00:51:18 00:06:16 1.588 03:57
2322SM356195RENZI MARSILIOS.S. LAZIO ATLETICA LEGGERA00:51:21 00:06:19 1.599 03:57
2423SM357239PELAGRILLI PAOLOG.S.FILIPPIDE00:51:27 00:06:25 1.621 03:58
2524SM503240BALDASARRI GIOVANNIANAGNI MARATHON00:51:37 00:06:35 1.658 03:58
2625SM601157VALERI LUCIANOG.S. POD. PRENESTE00:51:47 00:06:45 1.694 03:59
2726SM452270CICCHETTI RENATOSCAVO 200000:52:02 00:07:00 1.748 04:00
2827SM453185SALVI GUIDORUNNERS CANINO ASSOCIAZIONE SPORTIVA DILETTANTISTICA00:52:13 00:07:11 1.788 04:01
2928SM405232MECHELLI ALESSIOATL. FIANO ROMANO00:52:20 00:07:18 1.813 04:02
3029SM358278NORI FABRIZIOTERNI TRIATHLON00:52:22 00:07:20 1.820 04:02
3130SM359258MORELLI PIETROTERNI TRIATHLON00:52:32 00:07:30 1.855 04:03
3231SM504188CAVALLUCCI MARCORUNNERS SANGEMINI TR00:52:33 00:07:31 1.859 04:03
3332SM454280BOMBILI GIANCARLOCAT SPORT ROMA00:52:37 00:07:35 1.873 04:03
3433SM505137BIANCHINI ALFREDOASS.ATL.LIBERTAS ORVIETO00:52:38 00:07:36 1.877 04:03
3534SM455104PIERALISI MASSIMILIANOALTO LAZIO A.S.D.00:52:40 00:07:38 1.884 04:03
362SF400286CARDARELLI FABIOLA#ILOVERUN ATHLETIC TERNI00:52:42 00:07:40 1.891 04:03
3735SM50639LOZZI GIANCARLOA.S.D. BOLSENA FORUM-SPORT00:52:42 00:07:40 1.891 04:03
3836SM306218ROFENA ANDREAA.S.D. VITERBO RUNNERS00:53:07 00:08:05 1.978 04:05
3937SM55154FURLAN CLAUDIOA.S.D. G.P. MONTI DELLA TOLFA L'AIRONE00:53:10 00:08:08 1.988 04:05
4038SM40699GIOVANNINI DANIELEALTO LAZIO A.S.D.00:53:14 00:08:12 2.002 04:06
4139SM507210CECCHETTI GIULIOUISP COMITATO TERR.LE VITERBO00:53:27 00:08:25 2.047 04:07
4240SM552206RICCITELLI FABIOU.S. ROMA 8300:53:28 00:08:26 2.050 04:07
4341SM456267MENICHETTI SERGIOUISP VITERBO00:53:37 00:08:35 2.081 04:08
4442SM55353DI MARCO LUCIANOA.S.D. G.P. MONTI DELLA TOLFA L'AIRONE00:53:38 00:08:36 2.084 04:08
453SF400272BEREZNOWSKA PATRYCJAATLETA LIBERO00:53:44 00:08:42 2.104 04:08
4643SM554302PELLICCIA ALBERTOASS.ATL.LIBERTAS ORVIETO00:53:48 00:08:46 2.118 04:08
4744SM457124CALAMITA PAOLOASD ATLETICA AVIS NARNI00:53:55 00:08:53 2.141 04:09
4845SM508281MADAMA ITALORUNNING SAN BASILIO00:54:09 00:09:07 2.188 04:10
4946SM458131FINOCCHI GIOVANNIASD MONTEROSI RUN00:54:19 00:09:17 2.221 04:11
5047SM3510296HUZA MARIUS RAZVANG.S. BANCARI ROMANI00:54:24 00:09:22 2.238 04:11
5148SM555282SAVINA FABIOASD RUNNING SAN BASILIO00:54:30 00:09:28 2.258 04:12
5249SM351122FERRAMONDO DANIELEA.S.D. ATLETICA ORTE00:54:34 00:09:32 2.271 04:12
5350SM307223CATALANI DANIELEA.S.D. VITERBO RUNNERS00:54:36 00:09:34 2.277 04:12
5451SM407159TASSELLI PIETROLBM SPORT TEAM00:54:38 00:09:36 2.284 04:12
5552SM3512301CICOGNA ALESSIOATL. MONTE MARIO00:54:49 00:09:47 2.320 04:13
5653SM50911TIRATTERRA ANTONIOA.S.D. AT RUNNING00:54:58 00:09:56 2.349 04:14
5754SM408181COLUCCI DANIELERUNNERS CANINO ASSOCIAZIONE SPORTIVA DILETTANTISTICA00:55:01 00:09:59 2.358 04:14
5855SM409187CAROSELLI CRISTIANORUNNERS SANGEMINI TR00:55:01 00:09:59 2.358 04:14
5956SM5010156TRAVAGLINI MAUROG.S. POD. PRENESTE00:55:02 00:10:00 2.362 04:14
6057SM501149ZUCCARINO SERGIOA.S.D. ECOMARATONA DEI MONTI CIMINI00:55:13 00:10:11 2.397 04:15
6158SM3513287WIECZOREK MACIEJATLETA LIBERO00:55:22 00:10:20 2.426 04:16
6259SM4010219SOMMA FILIPPOA.S.D. VITERBO RUNNERS00:55:29 00:10:27 2.448 04:16
6360SM351456MORICONI SANDROA.S.D. G.P. MONTI DELLA TOLFA L'AIRONE00:55:31 00:10:29 2.454 04:16
6461SM556145DIONISI BRUNOATL.STUD. RIETI ANDREA MILARDI00:55:40 00:10:38 2.483 04:17
6562SM459284FESTUCCIA GIOVANNICITTADUCALE RUNNERS CLUB00:55:40 00:10:38 2.483 04:17
6663SM308277SVIZZERETTO GEREMIATERNI TRIATHLON00:55:55 00:10:53 2.530 04:18
6764SM501294ANTONINI UMBERTOALTO LAZIO A.S.D.00:55:58 00:10:56 2.539 04:18
6865SM5013289ANGELUZZI MASSIMOA.S.D. ATHLETIC LAB AMELIA00:56:06 00:11:04 2.564 04:19
6966SM4510197BUSATO PAOLOSABINA MARATHON CLUB00:56:11 00:11:09 2.579 04:19
7067SM55732CASCIONI PIEROA.S.D. ATLETICA SANTA MARINELLA00:56:16 00:11:14 2.595 04:20
7168SM30920CARLINI FRANCESCOA.S.D. ATLETICA ORTE00:56:19 00:11:17 2.604 04:20
7269SM3515176MERLANI RICCARDORUNCARD00:56:22 00:11:20 2.613 04:20
7370SM4511246NICCOLI GIOVANNIPOL. MONTALTO00:56:24 00:11:22 2.619 04:20
7471SM501451ANNUNZIATA GIUSEPPEA.S.D. G.P. MONTI DELLA TOLFA L'AIRONE00:56:28 00:11:26 2.632 04:21
7572SM4512183PISCIOTTANO ROSSANORUNNERS CANINO ASSOCIAZIONE SPORTIVA DILETTANTISTICA00:56:30 00:11:28 2.638 04:21
7673SM558271TAZZA GIORGIOAMATORI PODISTICA TERNI00:56:31 00:11:29 2.641 04:21
7774SM351625PAGGI PATRIZIOA.S.D. ATLETICA ORTE00:56:31 00:11:29 2.641 04:21
7875SM351743MINELLI DAVIDA.S.D. BOLSENA FORUM-SPORT00:56:33 00:11:31 2.647 04:21
7976SM501550ABBATE SALVATORE PANFILOA.S.D. G.P. MONTI DELLA TOLFA L'AIRONE00:56:36 00:11:34 2.656 04:21
8077SM401171LEONARDI PAOLOA.S.D. SEMPRE DI CORSA TEAM00:56:39 00:11:37 2.665 04:22
8178SM5016264TUCCINI REMOPOL. MONTALTO00:56:51 00:11:49 2.702 04:22
8279SM501748COLLETTI VINCENZOA.S.D. CITTADUCALE RUNNERS CLUB00:56:58 00:11:56 2.723 04:23
8380SM4513125LEONETTI FABIOASD ATLETICA AVIS NARNI00:57:04 00:12:02 2.741 04:23
8481SM4012180CALAMITA LUCIANORUNNERS CANINO ASSOCIAZIONE SPORTIVA DILETTANTISTICA00:57:12 00:12:10 2.765 04:24
8582SM451431ZUCCHELLI ALESSANDROA.S.D. ATLETICA ORTE00:57:13 00:12:11 2.768 04:24
8683SM559268BARBERINI PIETROPOL. MONTALTO00:57:17 00:12:15 2.780 04:24
8784SM301047ZANONI MARCOA.S.D. BOLSENA FORUM-SPORT00:57:21 00:12:19 2.791 04:25
8885SM5018222BIAGETTI STEFANOA.S.D. VITERBO RUNNERS00:57:25 00:12:23 2.803 04:25
8986SM4013266LIBRANDI FRANCESCOUISP VITERBO00:57:37 00:12:35 2.839 04:26
9087SM451545SBARRINI MARCOA.S.D. BOLSENA FORUM-SPORT00:57:42 00:12:40 2.853 04:26
9188SM401467SMERA SERGIOA.S.D. LIBERI PODISTI00:57:44 00:12:42 2.859 04:27
9289SM4015228SINIBALDI EMANUELE#ILOVERUN ATHLETIC TERNI00:57:45 00:12:43 2.862 04:27
9390SM501915SCOSCIA FEDERICOA.S.D. AT RUNNING00:57:45 00:12:43 2.862 04:27
9491SM3518140PIERGENTILI EMANUELEASS.ATL.LIBERTAS ORVIETO00:57:48 00:12:46 2.871 04:27
9592SM4016165MORETTI ANDREAPODISTICA CORCHIANO 201400:57:49 00:12:47 2.874 04:27
9693SM4516105PULIMANTI MARCOALTO LAZIO A.S.D.00:57:52 00:12:50 2.883 04:27
9794SM4517227FOSSATELLI FABRIZIO#ILOVERUN ATHLETIC TERNI00:57:55 00:12:53 2.891 04:27
9895SM4518139GALANELLI STEFANOASS.ATL.LIBERTAS ORVIETO00:57:58 00:12:56 2.900 04:28
994SF30126PANCOTTO LETIZIAA.S.D. ATLETICA ORTE00:58:02 00:13:00 2.912 04:28
10096SM5020182PIERSANTI ANGELORUNNERS CANINO ASSOCIAZIONE SPORTIVA DILETTANTISTICA00:58:04 00:13:02 2.917 04:28
10197SM5021138FORNERO ENRICOASS.ATL.LIBERTAS ORVIETO00:58:07 00:13:05 2.926 04:28
10298SM502238FIORAVANTI CARLOA.S.D. BOLSENA FORUM-SPORT00:58:18 00:13:16 2.958 04:29
10399SM451914SCARPONI MASSIMOA.S.D. AT RUNNING00:58:25 00:13:23 2.978 04:30
104100SM4520231MARCUCCI GIANLUCAILOVERUN ATHLETIC TERNI00:58:32 00:13:30 2.998 04:30
105101SM551072ALBANESI IVANOA.S.D. VILLA DE SANCTIS00:58:35 00:13:33 3.006 04:30
106102SM4521283CORNACCHIOLA GIANCARLOMOUNTAIN BIKE CLUB RIETI00:58:47 00:13:45 3.040 04:31
107103SM4522192NATALONI SERGIORUNNERS SANGEMINI TR00:58:51 00:13:49 3.052 04:32
108104SM551173BISEGNA MAURIZIOA.S.D. VILLA DE SANCTIS00:58:56 00:13:54 3.066 04:32
109105SM651211PAONE GIANNIUISP COMITATO TERR.LE VITERBO00:58:59 00:13:57 3.074 04:32
110106SM5023158CANESTRARI ANTONIOGP ATLETICA FALERIA00:59:07 00:14:05 3.096 04:33
111107SM5024198COLAFIGLI PAOLOSABINA MARATHON CLUB00:59:12 00:14:10 3.110 04:33
112108SM351924MAZZOTTA ALFREDOA.S.D. ATLETICA ORTE00:59:14 00:14:12 3.116 04:33
113109SM4523230PACETTI PIERO#ILOVERUN ATHLETIC TERNI00:59:18 00:14:16 3.127 04:34
114110SM452410BELLIONI MARIOA.S.D. AT RUNNING00:59:21 00:14:19 3.135 04:34
115111SM502519BIANCONI MARCOA.S.D. ATLETICA ORTE00:59:29 00:14:27 3.158 04:35
116112SM4525255CHIRICO VINCENZOATL. DI MARCO SPORT00:59:31 00:14:29 3.163 04:35
117113SM5026189DE STEFANIS ALESSANDRORUNNERS SANGEMINI TR00:59:32 00:14:30 3.166 04:35
118114SM602212RAMELLA ETTOREUISP COMITATO TERR.LE VITERBO00:59:32 00:14:30 3.166 04:35
119115SM4526179BENELLA ROBERTORUNNERS CANINO ASSOCIAZIONE SPORTIVA DILETTANTISTICA00:59:34 00:14:32 3.171 04:35
120116SM4527166MORETTI MARIOPODISTICA CORCHIANO 201400:59:37 00:14:35 3.180 04:35
121117SM352097DI COSIMO FABRIZIOALTO LAZIO A.S.D.00:59:42 00:14:40 3.193 04:36
122118SM2248ALUNNI DANIELETERNANA MARATHON CLUB A.S.D.00:59:50 00:14:48 3.215 04:36
123119SM5512108TOMBOLINI MAURIZIOALTO LAZIO A.S.D.00:59:57 00:14:55 3.234 04:37
124120SM5027174BRECCIA FABIORUNCARD00:59:58 00:14:56 3.237 04:37
1255SF35161CEORNEI ANA MARIAA.S.D. LIBERI PODISTI01:00:04 00:15:02 3.253 04:37
126121SM3521201LUCARELLI STEFANOTERNANA MARATHON CLUB A.S.D.01:00:04 00:15:02 3.253 04:37
127122SM4017291NEGRONI SANDROA.S.D. POD. AVIS NARNI01:00:11 00:15:09 3.272 04:38
128123SM551352ARDUINI CLAUDIOA.S.D. G.P. MONTI DELLA TOLFA L'AIRONE01:00:16 00:15:14 3.285 04:38
129124SM4528252CIPOLLONI LUCAPOL. MONTALTO01:00:24 00:15:22 3.307 04:39
130125SM401830STAVILA GHENADIEA.S.D. ATLETICA ORTE01:00:25 00:15:23 3.310 04:39
131126SM4529245MATTUCILLI ALESSANDROPOL. MONTALTO01:00:27 00:15:25 3.315 04:39
132127SM5514117PINELLI ENRICOAMATORI PODISTICA TERNI01:00:28 00:15:26 3.318 04:39
133128SM5515220SACCO GIANFRANCOA.S.D. VITERBO RUNNERS01:00:28 00:15:26 3.318 04:39
134129SM5028118SARTINI LUCAAMATORI PODISTICA TERNI01:00:29 00:15:27 3.320 04:39
1356SF451207TOMZA BARBARA HALINAU.S. ROMA 8301:00:48 00:15:46 3.371 04:41
136130SM3011292BRISCIA NICOL̉BOLSENA FORUM SPORT01:01:00 00:15:58 3.402 04:42
137131SM502923MASSARELLI GIANNIA.S.D. ATLETICA ORTE01:01:00 00:15:58 3.402 04:42
138132SM603243FELICI ROBERTOA.S.D. ATLETICA ORTE01:01:01 00:15:59 3.405 04:42
139133SM4530184ROGO ALESSANDRORUNNERS CANINO ASSOCIAZIONE SPORTIVA DILETTANTISTICA01:01:02 00:16:00 3.407 04:42
140134SM3522115GIORDANO LORENZOAMATORI PODISTICA TERNI01:01:05 00:16:03 3.415 04:42
141135SM604101MALATESTA UMBERTOALTO LAZIO A.S.D.01:01:12 00:16:10 3.434 04:43
142136SM4531122MARTONI FRANCESCOAMICI DEI VIGILI DEL FUOCO DI VITERBO01:01:17 00:16:15 3.447 04:43
143137SM605241ANGELELLI EGIDIOG.S. POD. PRENESTE01:01:25 00:16:23 3.467 04:44
144138SM5516205BONANNI CESAREU.S. ROMA 8301:01:31 00:16:29 3.483 04:44
1457SF401249GOVERNATORI GIOVANNALIBERTY ATLETIC01:01:49 00:16:47 3.529 04:45
146139SM606263PETRINO LUIGIPOL. MONTALTO01:01:57 00:16:55 3.549 04:46
147140SM503068BERTOLO DAVIDA.S.D. LIBERTY ATLETIC01:01:59 00:16:57 3.554 04:46
148141SM503170NAPPI UMBERTOA.S.D. LIBERTY ATLETIC01:01:59 00:16:57 3.554 04:46
149142SM551734BATTAGLINI PIETROA.S.D. BOLSENA FORUM-SPORT01:02:02 00:17:00 3.562 04:46
150143SM4532134GARGIULO MARIOASDPS OPEN MIND01:02:02 00:17:00 3.562 04:46
151144SM5032109VETTORI MARCOALTO LAZIO A.S.D.01:02:09 00:17:07 3.580 04:47
152145SM301260SPAGGIARI STEFANOA.S.D. GRUPPO SPORTIVO REALE STATO DEI PRESIDI01:02:10 00:17:08 3.582 04:47
153146SM5518203FERDINANDI ROBERTOTIVOLI MARATHON01:02:17 00:17:15 3.600 04:48
154147SM503341MARI STEFANOA.S.D. BOLSENA FORUM-SPORT01:02:25 00:17:23 3.620 04:48
155148SM5519151NAPPI ENRICOC.D.P. CIRC.DIP.PERUGINA01:02:26 00:17:24 3.623 04:48
156149SM453374CASTELLI ALESSANDROA.S.D. VILLA DE SANCTIS01:02:28 00:17:26 3.628 04:48
157150SM3013142FRELLICCA ANDREAASS.ORVIETO RUNNERS01:02:33 00:17:31 3.640 04:49
158151SM607238CHIERUZZI SANDROATHLETIC LAB AMELIA01:02:36 00:17:34 3.648 04:49
159152SM352387PIGNATARO WILLIAMA.S.D. VILLA DE SANCTIS01:02:39 00:17:37 3.655 04:49
160153SM60891SORTINO VINCENZOA.S.D. VILLA DE SANCTIS01:02:39 00:17:37 3.655 04:49
161154SM453412CATALUCCI STEFANOA.S.D. AT RUNNING01:02:43 00:17:41 3.665 04:50
162155SM4535233LISI CLAUDIOATLETICA FIANO ROMANO01:02:57 00:17:55 3.700 04:51
1638SF352273CORSI NAIDAAMATORI PODISTICA TERNI01:03:00 00:17:58 3.707 04:51
164156SM60998BELLINI PIETROALTO LAZIO A.S.D.01:03:08 00:18:06 3.727 04:51
1659SF551160BATTELLI DANIELAPOD. CARSULAE TR01:03:26 00:18:24 3.770 04:53
166157SM4536168CIPICCIA ANDREAPODISTICA MYRICAE ASS.CULT.AMB01:03:26 00:18:24 3.770 04:53
167158SM4019135MANGIACAPRA MARIOASDPS OPEN MIND01:03:48 00:18:46 3.823 04:55
168159SM5034123AIELLO MARCOASD ATLETICA AVIS NARNI01:03:50 00:18:48 3.828 04:55
169160SM3524130LOTTI LEONARDOASD LIBERTAS ELLERA01:03:54 00:18:52 3.838 04:55
170161SM4537269GKOWACKI ANDREJATLETA LIBERO01:03:57 00:18:55 3.845 04:55
171162SM70116BAIA GIORGIOA.S.D. ATL. ENERGIA ROMA01:04:13 00:19:11 3.883 04:56
172163SM4538297POLVERINI ANDREAG.S. BANCARI ROMANI01:04:14 00:19:12 3.885 04:57
17310SF402150COZZARI MARIANNAC.D.P. CIRC.DIP.PERUGINA01:04:20 00:19:18 3.900 04:57
174164SM5520107TOLI MAUROALTO LAZIO A.S.D.01:04:23 00:19:21 3.907 04:57
175165SM4539136TERZOLI ENRICOASDPS OPEN MIND01:04:25 00:19:23 3.911 04:57
176166SM4540253BERSAGLIA ANTONIOPOL. MONTALTO01:04:27 00:19:25 3.916 04:58
177167SM503558MACCARUCCI CLAUDIOA.S.D. GRUPPO SPORTIVO REALE STATO DEI PRESIDI01:04:29 00:19:27 3.921 04:58
17811SF50144RANUCCI DANIELAA.S.D. BOLSENA FORUM-SPORT01:04:30 00:19:28 3.923 04:58
179168SM3014175DI NUZZO MAURORUNCARD01:04:37 00:19:35 3.939 04:58
180169SM5036299SOLFANELLI MIRCOG.S.FILIPPIDE01:05:00 00:19:58 3.993 05:00
181170SM5037276QUADRACCIA IVANOATHLETIC LAB AMELIA01:05:01 00:19:59 3.995 05:00
182171SM5521254SPADINI MAURIZIOASD ATLETICA AVIS NARNI01:05:06 00:20:04 4.007 05:01
183172SM454135BORINO FILIPPO ANTONIOA.S.D. BOLSENA FORUM-SPORT01:05:13 00:20:11 4.023 05:01
184173SM5522217GIULIOLI ANTONIOA.S.D. VITERBO RUNNERS01:05:15 00:20:13 4.027 05:01
185174SM503821FELICI MAUROA.S.D. ATLETICA ORTE01:05:17 00:20:15 4.032 05:01
18612SF403106SANTINI MONICAALTO LAZIO A.S.D.01:05:18 00:20:16 4.034 05:01
187175SM4542275DI SCHINO ANDREAAMATORI PODISTICA TERNI01:05:26 00:20:24 4.052 05:02
188176SM702256FELICI ALDOASD ATLETICA AVIS NARNI01:05:29 00:20:27 4.059 05:02
189177SM503962CIANTI MASSIMILIANOA.S.D. LIBERI PODISTI01:05:42 00:20:40 4.089 05:03
190178SM4020247PIROZZI GIOVANNIAVIS TERNI01:05:58 00:20:56 4.125 05:05
191179SM4543242NINO GALEANO WILSON GUILLERMOLAZIO RUNNERS TEAM A.S.D.01:05:59 00:20:57 4.127 05:05
192180SM652113GARZUGLIA UMBROAMATORI PODISTICA TERNI01:06:15 00:21:13 4.163 05:06
193181SM402164FIORI ANGELOA.S.D. LIBERI PODISTI01:06:22 00:21:20 4.178 05:06
194182SM552380GAMBITTA ANTONIOA.S.D. VILLA DE SANCTIS01:06:25 00:21:23 4.185 05:07
19513SF404193ZUCCACCI VALENTINARUNNERS SANGEMINI TR01:06:43 00:21:41 4.225 05:08
19614SF60165MIGLIORINI VILMAA.S.D. LIBERI PODISTI01:06:52 00:21:50 4.244 05:09
19715SF40542MAZZIERI MIRIAA.S.D. BOLSENA FORUM-SPORT01:07:02 00:22:00 4.266 05:09
19816SF45229RIZZO VALERIAA.S.D. ATLETICA ORTE01:07:16 00:22:14 4.296 05:11
199183SM3525199LANCIONI MIRKOSANTA MARINELLA ATHLETIC CLUB01:07:22 00:22:20 4.309 05:11
200184SM4544229CIANCAGLIONI AMEDEOA.S.D. ATLETICA DI MARCO SPORT01:07:24 00:22:22 4.314 05:11
20117SF353100MACCHIONI EMANUELAALTO LAZIO A.S.D.01:07:28 00:22:26 4.322 05:11
202185SM552490SABATELLA ADALBERTOA.S.D. VILLA DE SANCTIS01:07:49 00:22:47 4.367 05:13
203186SM504078DELL'UOMO MAUROA.S.D. VILLA DE SANCTIS01:07:49 00:22:47 4.367 05:13
20418SF55255GUIDA MARIA ONORINAA.S.D. G.P. MONTI DELLA TOLFA L'AIRONE01:08:05 00:23:03 4.401 05:14
205187SM4545225MATALONI STEFANOASD ATLETICA COSTA D'ARGENTO01:08:13 00:23:11 4.418 05:15
206188SM3526234CRISTOFARI GIUSEPPEATL. DI MARCO SPORT01:08:24 00:23:22 4.441 05:16
20719SF302235GARGIULLI GIORGIAATLETICOM ASD01:08:28 00:23:26 4.449 05:16
208189SM5525236TORRI SERGIOATLETICOM ASD01:08:30 00:23:28 4.453 05:16
209190SM4546237DI SABATINO GIORGIOATLETICOM ASD01:08:35 00:23:33 4.463 05:17
210191SM552617LEGITTIMO FRANCESCOA.S.D. ATLETICA DI MARCO SPORT01:08:37 00:23:35 4.468 05:17
211192SM5527173BISONNI ROBERTORUNCARD01:08:41 00:23:39 4.476 05:17
212193SM3295GTOWACKI MATEUSZATLETA LIBERO01:08:45 00:23:43 4.484 05:17
21320SF50289ROCCHI AURELIAA.S.D. VILLA DE SANCTIS01:08:51 00:23:49 4.496 05:18
214194SM5041163LISI AUGUSTOPODISTICA CORCHIANO 201401:09:01 00:23:59 4.517 05:19
215195SM65336BURLA FERNANDOA.S.D. BOLSENA FORUM-SPORT01:09:06 00:24:04 4.527 05:19
216196SM703144MARINO PIETROATL. 90 TARQUINIA01:09:07 00:24:05 4.529 05:19
21721SF406152PASSAMONTI ALIDAC.D.P. CIRC.DIP.PERUGINA01:09:16 00:24:14 4.548 05:20
21822SF35427PECIAROLO SARAA.S.D. ATLETICA ORTE01:09:29 00:24:27 4.574 05:21
219197SM65488RASO ANTONIOA.S.D. VILLA DE SANCTIS01:09:46 00:24:44 4.608 05:22
220198SM4547149BOCCHINI MAURIZIOC.D.P. CIRC.DIP.PERUGINA01:09:57 00:24:55 4.630 05:23
221199SM751128NADDEO ANTONIOASD BOLSENA FORUM SPORT01:10:05 00:25:03 4.646 05:24
222200SM402292PETRICCA MAUROA.S.D. VITERBO RUNNERS01:10:15 00:25:13 4.666 05:24
223201SM352775CIOLFI ROBERTOA.S.D. VILLA DE SANCTIS01:10:21 00:25:19 4.678 05:25
224202SM601079DI FLORIDO MASSIMOA.S.D. VILLA DE SANCTIS01:10:30 00:25:28 4.695 05:25
225203SM5042200BELLACCINI GIAN LUCATERNANA MARATHON CLUB A.S.D.01:10:43 00:25:41 4.721 05:26
226204SM4548261PELLEGRINI GIANNIG.S.FILIPPIDE01:10:52 00:25:50 4.738 05:27
22723SF55346SEVERO NETO IONEA.S.D. BOLSENA FORUM-SPORT01:10:57 00:25:55 4.748 05:28
228205SM6011112CAMAIANI LUCIANOAMATORI PODISTICA TERNI01:10:59 00:25:57 4.752 05:28
229206SM655167ROMOLI VITTORIOPODISTICA CORCHIANO 201401:11:10 00:26:08 4.773 05:29
23024SF1298GAGLIARDI VALENTINALIBERTAS ORVIETO01:11:10 00:26:08 4.773 05:29
231207SM552884IACOVACCI MARIOA.S.D. VILLA DE SANCTIS01:11:15 00:26:13 4.783 05:29
232208SM5043257CELI LUCAASD ATLETICA AVIS NARNI01:11:18 00:26:16 4.789 05:29
233209SM5044143GRAZIANI CRISTIANOASS.ORVIETO RUNNERS01:11:51 00:26:49 4.852 05:32
23425SF453300RUBECA ROSITAG.S.FILIPPIDE01:12:02 00:27:00 4.872 05:33
23526SF2294BRULINSKA MARTAATLETA LIBERO01:12:04 00:27:02 4.876 05:33
236210SM552983HASSEMER EUGENIOA.S.D. VILLA DE SANCTIS01:12:07 00:27:05 4.882 05:33
237211SM553077DEL GIUDICE LUIGIA.S.D. VILLA DE SANCTIS01:12:12 00:27:10 4.891 05:33
23827SF50366NOBILI NICOLETTAA.S.D. LIBERI PODISTI01:12:17 00:27:15 4.900 05:34
239212SM3528288DONARSKI RAFALATLETA LIBERO01:12:18 00:27:16 4.902 05:34
240213SM4023209BENEDETTI DANIELEUISP COMITATO TERR.LE VITERBO01:12:30 00:27:28 4.925 05:35
241214SM504576CROCE' FRANCESCOA.S.D. VILLA DE SANCTIS01:12:40 00:27:38 4.943 05:35
24228SF454172CASAMASSIMA RITARUNCARD01:12:44 00:27:42 4.950 05:36
243215SM5531171AMIDANI CESARERUNCARD01:12:44 00:27:42 4.950 05:36
244216SM656260RISINI FAUSTOG.S.FILIPPIDE01:12:55 00:27:53 4.971 05:37
24529SF504121VACCARINI PATRIZIAAMATORI PODISTICA TERNI01:13:31 00:28:29 5.036 05:39
246217SM5046221DI STEFANO STEFANOPUROSANGUE ATHLETICS CLUB01:13:44 00:28:42 5.060 05:40
24730SF602162GUARNELLO SERENELLAPOD. CARSULAE TR01:14:49 00:29:47 5.175 05:45
248218SM4024293MIETEK ARTURATLETA LIBERO01:15:09 00:30:07 5.209 05:47
249219SM5532129ZACCARO BIAGIOASD CORRICASTROVILLARI01:15:21 00:30:19 5.230 05:48
250220SM4549178POGGETTI MARIORUNCARD01:15:23 00:30:21 5.233 05:48
251221SM4550133GALLO PASQUALEASDPS OPEN MIND01:15:25 00:30:23 5.237 05:48
252222SM657155GIACCO DOMENICOG.S. CAT SPORT ROMA01:16:14 00:31:12 5.320 05:52
253223SM601286PANETTIERI ALBERTOA.S.D. VILLA DE SANCTIS01:16:23 00:31:21 5.335 05:53
25431SF505204AQUILANTE GIUSEPPINAU.S. ROMA 8301:16:39 00:31:37 5.362 05:54
25532SF455290CAPPUCCINI PATRIZIAATL. ORTE01:17:20 00:32:18 5.429 05:57
25633SF456169CASCIO MONIAPODISTICA MYRICAE ASS.CULT.AMB01:17:42 00:32:40 5.465 05:59
257224SM4551170TIZI ALESSIOPODISTICA MYRICAE ASS.CULT.AMB01:17:42 00:32:40 5.465 05:59
25834SF355274KOSEWSKA MONIKAPAATLETA LIBERO01:18:56 00:33:54 5.583 06:04
259225SM658114GENNARI GIULIANOAMATORI PODISTICA TERNI01:20:00 00:34:58 5.682 06:09
26035SF506111AGABITI CAROLINAAMATORI PODISTICA TERNI01:20:00 00:34:58 5.682 06:09
261226SM455296BOBBONI LUCAALTO LAZIO A.S.D.01:20:06 00:35:04 5.691 06:10
262227SM504785MIGLIORI CLAUDIOA.S.D. VILLA DE SANCTIS01:21:37 00:36:35 5.827 06:17
26336SF507259MECARONE ALESSANDRAG.S.FILIPPIDE01:21:41 00:36:39 5.832 06:17
26437SF303285MEI SARAUISP COMITATO TERR.LE VITERBO01:21:44 00:36:42 5.837 06:17
26538SF50881GUERRINI CLAUDIAA.S.D. VILLA DE SANCTIS01:22:08 00:37:06 5.872 06:19
266228SM752154BROGI GIANCARLOCORSA DEI SANTI01:22:11 00:37:09 5.876 06:19
26739SF50933BARBOSA DE ARAUJO LUZIAA.S.D. BOLSENA FORUM-SPORT01:25:34 00:40:32 6.158 06:35
26840SF356279KOWNACKA IZABELAATLETA LIBERO01:26:46 00:41:44 6.252 06:41
26941SF651110SENSI DANIELAAMATORI PODISTICA TERNI01:26:57 00:41:55 6.267 06:41
27042SF55482HANBOULA EZZOHRAA.S.D. VILLA DE SANCTIS01:30:54 00:45:52 6.559 07:00
271229SM4553147SCHIAVI FELICE FRANCESCOATLETICA CECCANO01:30:56 00:45:54 6.561 07:00
272230SM753251CIPOLLONI CARLOPOL. MONTALTO01:32:29 00:47:27 6.669 07:07
27343SF652120TARTAMELLI LINAAMATORI PODISTICA TERNI01:37:22 00:52:20 6.987 07:29
Righe per pagina::     TUTTE    |   30   |   50   |   100   Pagina:   | 1 | | 2 | | 3 | | 4 | | 5 | | 6 |